MDT,Max TemperatureF,Mean TemperatureF,Min TemperatureF,Max Dew PointF,MeanDew PointF,Min DewpointF,Max Humidity, Mean Humidity, Min Humidity, Max Sea Level PressureIn, Mean Sea Level PressureIn, Min Sea Level PressureIn, Max VisibilityMiles, Mean VisibilityMiles, Min VisibilityMiles, Max Wind SpeedMPH, Mean Wind SpeedMPH, Max Gust SpeedMPH,PrecipitationIn, CloudCover, Events, WindDirDegrees
2013-8-1,84,74,64,66,62,59,94,69,45,30.29,30.17,30.09,10,10,7,15,5,21,0.07,3,Rain-Thunderstorm,253
2013-8-2,93,78,64,64,58,50,88,52,23,30.15,30.10,30.04,10,10,10,24,4,30,0.00,1,,297
2013-8-3,93,78,64,61,55,45,88,47,19,30.18,30.11,30.05,10,10,10,15,4,21,0.00,0,Thunderstorm,280
2013-8-4,96,86,75,59,53,50,57,36,20,30.18,30.10,30.03,10,10,10,17,7,22,0.00,0,,287
2013-8-5,89,76,64,61,56,50,88,49,26,30.24,30.13,30.03,10,10,2,20,9,28,0.00,2,Rain-Thunderstorm,281
2013-8-6,87,76,64,63,56,50,77,54,29,30.15,30.11,30.05,10,10,10,23,4,36,0.03,1,Rain-Thunderstorm,267
2013-8-7,89,76,62,59,53,43,88,49,22,30.16,30.10,30.03,10,10,10,21,9,33,0.00,3,Thunderstorm,284
2013-8-8,93,78,62,48,42,36,55,30,14,30.13,30.08,30.01,10,10,10,16,6,22,0.00,0,,282
2013-8-9,95,78,60,48,43,37,52,31,14,30.12,30.08,30.03,10,10,10,18,3,30,0.00,0,Thunderstorm,209
2013-8-10,89,78,66,59,52,45,61,42,31,30.23,30.17,30.10,10,10,10,26,9,36,0.00,2,Rain-Thunderstorm,132
2013-8-11,87,76,64,61,59,55,83,58,38,30.23,30.16,30.06,10,10,10,20,10,26,0.00,3,,132
2013-8-12,91,78,66,63,58,52,78,53,27,30.16,30.11,30.05,10,10,7,17,6,22,0.11,2,Rain-Thunderstorm,135
2013-8-13,91,78,64,63,57,50,88,52,24,30.20,30.12,30.05,10,10,5,10,4,18,0.00,1,Thunderstorm,136
2013-8-14,96,80,64,61,55,50,88,50,20,30.21,30.12,30.03,10,10,10,32,6,40,0.02,2,Rain-Thunderstorm,128
2013-8-15,89,74,60,59,55,50,94,54,27,30.21,30.16,30.10,10,10,10,13,5,20,0.00,0,Thunderstorm,135
2013-8-16,95,78,62,61,53,39,88,44,14,30.21,30.15,30.08,10,10,10,12,6,17,0.00,0,Thunderstorm,142
2013-8-17,96,81,66,55,49,37,60,34,13,30.19,30.12,30.02,10,10,10,12,5,22,0.00,1,,193
2013-8-18,95,80,64,50,47,43,56,32,18,30.18,30.12,30.05,10,10,10,21,6,31,0.00,1,Thunderstorm,318
2013-8-19,98,83,68,54,49,41,52,33,15,30.15,30.10,30.02,10,10,10,18,6,24,0.00,2,Rain-Thunderstorm,293
2013-8-20,93,80,68,63,55,46,78,49,20,30.16,30.10,30.00,10,10,2,31,5,23,0.43,3,Rain-Thunderstorm,206
2013-8-21,91,78,66,63,56,48,83,53,24,30.15,30.10,30.03,10,10,10,12,5,22,0.00,2,Thunderstorm,253
2013-8-22,93,78,62,61,49,37,94,41,16,30.18,30.10,30.01,10,10,10,18,6,22,0.00,1,,134
2013-8-23,89,76,64,52,48,43,52,36,22,30.12,30.05,29.97,10,10,10,17,8,25,0.00,1,Thunderstorm,142
2013-8-24,86,76,66,64,56,52,94,54,31,30.17,30.09,30.01,10,10,4,15,9,25,0.35,3,Rain-Thunderstorm,142
2013-8-25,87,76,64,64,61,54,100,67,33,30.20,30.15,30.08,10,10,5,15,5,30,0.05,5,Rain,153
2013-8-26,91,78,64,63,53,46,73,44,22,30.20,30.13,30.05,10,10,10,22,10,30,0.00,1,,138
2013-8-27,89,78,68,55,52,48,60,41,24,30.15,30.09,30.02,10,10,10,22,12,30,0.00,2,,119
2013-8-28,78,74,69,63,59,55,78,62,44,30.20,30.13,30.06,10,10,10,18,9,29,0.00,6,Rain,124
2013-8-29,78,72,66,66,63,61,94,79,57,30.26,30.22,30.15,10,9,0,,,,2.13,7,Rain-Thunderstorm,-1
2013-8-30,86,76,66,66,62,57,94,69,40,30.25,30.19,30.11,10,10,10,,,,0.00,2,Thunderstorm,-1
2013-8-31,89,76,64,63,60,50,94,60,26,30.16,30.09,30.01,10,10,10,,,,0.00,0,,-1